createdAt,value
2022-10-04T00:02:24.720Z,86.54
2022-10-04T00:08:44.584Z,86.58
2022-10-04T00:15:07.653Z,86.39
2022-10-04T00:21:27.614Z,86.97
2022-10-04T00:27:50.663Z,87.69
2022-10-04T00:34:10.634Z,87.89
2022-10-04T00:40:33.619Z,87.72
2022-10-04T00:46:53.584Z,87.8
2022-10-04T00:53:16.619Z,87.63
2022-10-04T00:59:36.639Z,87.36
2022-10-04T01:05:59.624Z,87.51
2022-10-04T01:12:19.655Z,87.25
2022-10-04T01:18:42.570Z,87.28
2022-10-04T01:25:02.623Z,87.79
2022-10-04T01:31:25.750Z,87.62
2022-10-04T01:37:45.613Z,87.63
2022-10-04T01:44:08.593Z,87.96
2022-10-04T01:50:28.621Z,87.76
2022-10-04T01:56:51.592Z,87.44
2022-10-04T02:03:11.557Z,87.5
2022-10-04T02:09:34.722Z,87.37
2022-10-04T02:15:54.562Z,87.13
2022-10-04T02:22:17.592Z,87.27
2022-10-04T02:28:37.629Z,87.42
2022-10-04T02:35:00.580Z,87.33
2022-10-04T02:41:20.621Z,87.21
2022-10-04T02:47:43.615Z,87.25
2022-10-04T02:54:03.986Z,87.39
2022-10-04T03:00:26.651Z,87.34
2022-10-04T03:15:58.513Z,86.94
2022-10-04T03:22:18.575Z,87.2
2022-10-04T03:28:41.592Z,87.6
2022-10-04T03:35:01.619Z,87.83
2022-10-04T03:41:24.612Z,88.11
2022-10-04T03:47:44.577Z,88.05
2022-10-04T03:54:07.668Z,87.81
2022-10-04T04:00:27.588Z,87.75
2022-10-04T04:06:50.574Z,88.04
2022-10-04T04:13:10.634Z,88.3
2022-10-04T04:19:33.602Z,88.16
2022-10-04T04:25:53.571Z,87.79
2022-10-04T04:32:16.660Z,87.42
2022-10-04T04:38:36.567Z,87.41
2022-10-04T04:44:59.639Z,87.71
2022-10-04T04:51:19.685Z,87.8
2022-10-04T04:57:42.607Z,87.56
2022-10-04T05:04:02.636Z,87.42
2022-10-04T05:10:25.618Z,87.64
2022-10-04T05:16:45.703Z,87.93
2022-10-04T05:23:08.634Z,88.04
2022-10-04T05:29:28.586Z,88
2022-10-04T05:35:51.592Z,87.74
2022-10-04T05:42:11.593Z,87.99
2022-10-04T05:48:34.637Z,88.15
2022-10-04T05:54:54.733Z,88.19
2022-10-04T06:01:17.641Z,88.03
2022-10-04T06:07:37.674Z,87.7
2022-10-04T06:14:00.560Z,87.69
2022-10-04T06:20:20.624Z,87.38
2022-10-04T06:26:43.589Z,87.15
2022-10-04T06:33:03.648Z,87.17
2022-10-04T06:39:26.613Z,87.19
2022-10-04T06:45:46.746Z,87.04
2022-10-04T06:52:09.627Z,87.04
2022-10-04T06:58:29.630Z,86.54
2022-10-04T07:05:09.073Z,86.49
2022-10-04T07:11:12.679Z,86.41
2022-10-04T07:17:35.591Z,86.12
2022-10-04T07:23:55.686Z,85.85
2022-10-04T07:30:18.552Z,85.46
2022-10-04T07:36:38.640Z,84.51
2022-10-04T07:43:01.584Z,83.46
2022-10-04T07:49:21.880Z,83
2022-10-04T07:55:44.700Z,81.82
2022-10-04T08:02:04.696Z,82.42
2022-10-04T08:18:50.590Z,80.98
2022-10-04T08:25:10.554Z,80.32
2022-10-04T08:31:33.671Z,79.74
2022-10-04T08:37:53.622Z,79.47
2022-10-04T08:44:16.584Z,80.08
2022-10-04T08:50:36.637Z,80.85
2022-10-04T08:56:59.618Z,79.58
2022-10-04T09:03:22.981Z,79.85
2022-10-04T09:09:42.924Z,78.32
2022-10-04T09:16:02.969Z,77.82
2022-10-04T09:22:26.677Z,76.73
2022-10-04T09:28:46.572Z,75.5
2022-10-04T09:35:09.903Z,75.58
2022-10-04T09:41:29.740Z,74
2022-10-04T09:47:52.795Z,72.18
2022-10-04T09:54:12.628Z,72.06
2022-10-04T10:00:35.557Z,72.26
2022-10-04T10:06:55.877Z,72.22
2022-10-04T10:13:18.721Z,71.6
2022-10-04T10:19:38.571Z,71.21
2022-10-04T10:26:01.586Z,71
2022-10-04T10:32:21.591Z,68.15
2022-10-04T10:38:44.583Z,68.49
2022-10-04T10:45:04.807Z,66.33
2022-10-04T10:51:27.941Z,65.37
2022-10-04T10:57:47.561Z,63.63
2022-10-04T11:04:10.601Z,62.74
2022-10-04T11:10:30.796Z,61.73
2022-10-04T11:16:53.726Z,60.89
2022-10-04T11:23:13.614Z,62.04
2022-10-04T11:29:36.624Z,60
2022-10-04T11:35:56.791Z,59.14
2022-10-04T11:42:19.580Z,59.03
2022-10-04T11:48:39.588Z,57.85
2022-10-04T11:55:02.604Z,57.76
2022-10-04T12:01:22.557Z,57.86
2022-10-04T12:07:45.613Z,56.44
2022-10-04T12:14:05.780Z,54.96
2022-10-04T12:20:28.575Z,54.78
2022-10-04T12:26:48.676Z,55.08
2022-10-04T12:33:11.601Z,55.02
2022-10-04T12:39:31.607Z,55.59
2022-10-04T12:45:54.669Z,54.15
2022-10-04T12:52:14.699Z,52.85
2022-10-04T12:58:37.570Z,51.9
2022-10-04T13:04:57.592Z,52.22
2022-10-04T13:11:20.646Z,54.29
2022-10-04T13:34:43.119Z,55.23
2022-10-04T13:41:02.595Z,56.43
2022-10-04T13:47:25.624Z,56.99
2022-10-04T13:53:45.626Z,57.66
2022-10-04T14:00:08.575Z,58.45
2022-10-04T14:06:28.628Z,58.93
2022-10-04T14:12:51.594Z,58.66
2022-10-04T14:19:11.580Z,58.76
2022-10-04T14:25:34.570Z,59.08
2022-10-04T14:31:54.883Z,56.13
2022-10-04T14:38:17.595Z,57.2
2022-10-04T14:44:39.651Z,56.88
2022-10-04T14:51:00.668Z,55.8
2022-10-04T14:57:20.599Z,55.58
2022-10-04T15:03:43.594Z,57.1
2022-10-04T15:10:03.617Z,57.06
2022-10-04T15:16:27.626Z,59.22
2022-10-04T15:22:47.715Z,59.94
2022-10-04T15:29:10.608Z,61.15
2022-10-04T15:35:30.609Z,61.18
2022-10-04T15:41:53.616Z,61.73
2022-10-04T15:48:13.949Z,62.78
2022-10-04T15:54:36.890Z,63.17
2022-10-04T16:00:56.587Z,63.12
2022-10-04T16:07:19.603Z,64.74
2022-10-04T16:13:39.572Z,65.27
2022-10-04T16:20:02.586Z,66.68
2022-10-04T16:26:22.631Z,67.39
2022-10-04T16:32:45.662Z,68.62
2022-10-04T16:39:05.661Z,69.68
2022-10-04T16:45:28.600Z,70.63
2022-10-04T16:51:48.684Z,71.63
2022-10-04T16:58:11.752Z,72.44
2022-10-04T17:04:31.746Z,73.39
2022-10-04T17:10:54.595Z,74.18
2022-10-04T17:17:14.684Z,75.15
2022-10-04T17:23:37.768Z,75.93
2022-10-04T17:29:57.553Z,76.29
2022-10-04T17:36:20.621Z,77.08
2022-10-04T17:42:40.709Z,77.89
2022-10-04T17:49:03.578Z,78.88
2022-10-04T17:55:23.737Z,79.56
2022-10-04T18:01:46.724Z,79.66
2022-10-04T18:08:07.127Z,80.16
2022-10-04T18:24:35.609Z,80.42
2022-10-04T18:30:55.587Z,80.88
2022-10-04T18:37:18.580Z,81.4
2022-10-04T18:43:38.580Z,81.41
2022-10-04T18:50:01.566Z,82.13
2022-10-04T18:56:21.622Z,82.14
2022-10-04T19:02:44.634Z,81.92
2022-10-04T19:09:04.620Z,82.27
2022-10-04T19:15:27.671Z,82.01
2022-10-04T19:21:47.668Z,81.99
2022-10-04T19:28:10.697Z,82.05
2022-10-04T19:34:30.608Z,82.38
2022-10-04T19:40:53.688Z,82.45
2022-10-04T19:47:13.738Z,83.07
2022-10-04T19:53:36.692Z,83.41
2022-10-04T19:59:56.611Z,83.93
2022-10-04T20:06:19.594Z,84.38
2022-10-04T20:12:39.590Z,84.45
2022-10-04T20:19:02.590Z,84.44
2022-10-04T20:25:22.705Z,84.5
2022-10-04T20:31:45.592Z,84.18
2022-10-04T20:38:27.644Z,84
2022-10-04T20:44:29.603Z,84.21
2022-10-04T20:50:49.553Z,84.25
2022-10-04T20:57:12.738Z,83.97
2022-10-04T21:03:32.637Z,83.8
2022-10-04T21:09:55.787Z,83.91
2022-10-04T21:16:15.704Z,83.86
2022-10-04T21:22:38.609Z,83.32
2022-10-04T21:28:58.650Z,83.37
2022-10-04T21:35:21.645Z,83.57
2022-10-04T21:41:41.627Z,83.52
2022-10-04T21:48:04.610Z,83.54
2022-10-04T21:54:24.671Z,83.95
2022-10-04T22:19:58.597Z,84.89
2022-10-04T22:26:18.556Z,85.21
2022-10-04T22:32:41.577Z,85.29
2022-10-04T22:39:01.723Z,85.4
2022-10-04T22:45:24.549Z,85.72
2022-10-04T22:51:44.641Z,85.34
2022-10-04T22:58:07.650Z,85.11
2022-10-04T23:04:27.656Z,85.43
2022-10-04T23:10:50.550Z,85.28
2022-10-04T23:17:10.638Z,85.63
2022-10-04T23:23:33.565Z,86.45
2022-10-04T23:29:53.580Z,86.39
2022-10-04T23:36:16.582Z,86.65
2022-10-04T23:42:36.625Z,86.6
2022-10-04T23:48:59.591Z,86.51
2022-10-04T23:55:19.682Z,86.71
